Time;durP1;ratioP1;P1;durP2;ratioP2;P2;SDS_P1;SDS_P2;PMS_P1;PMS_P2;Temp;Humidity;BMP_temperature;BMP_pressure;BME280_temperature;BME280_humidity;BME280_pressure;Samples;Min_cycle;Max_cycle;Signal;HPM_P1;HPM_P2
2022/03/27 00:00:08;;;;;;;25.10;10.23;;;10.50;99.90;;;;;;6073019;23;20018;-84
2022/03/27 00:02:41;;;;;;;31.85;11.60;;;10.50;99.90;;;;;;6097816;23;20495;-83
2022/03/27 00:05:11;;;;;;;25.58;11.23;;;10.40;99.90;;;;;;6097289;23;20093;-83
2022/03/27 00:07:38;;;;;;;23.80;11.02;;;10.40;99.90;;;;;;6097377;23;20006;-83
2022/03/27 00:10:06;;;;;;;27.92;12.82;;;10.40;99.90;;;;;;6098173;23;20006;-83
2022/03/27 00:12:33;;;;;;;33.47;13.10;;;10.40;99.90;;;;;;6097593;23;20097;-83
2022/03/27 00:15:01;;;;;;;25.92;12.63;;;10.30;99.90;;;;;;6098369;23;20098;-83
2022/03/27 00:17:33;;;;;;;32.30;14.13;;;10.40;99.90;;;;;;6098326;23;20034;-83
2022/03/27 00:20:05;;;;;;;30.02;12.65;;;10.30;99.90;;;;;;6098453;23;20503;-83
2022/03/27 00:22:32;;;;;;;31.60;14.32;;;10.30;99.90;;;;;;6098263;23;20007;-83
2022/03/27 00:24:59;;;;;;;28.35;14.07;;;10.20;99.90;;;;;;6074432;23;20013;-83
2022/03/27 00:27:25;;;;;;;34.33;13.73;;;10.20;99.90;;;;;;6074364;23;20010;-83
2022/03/27 00:29:53;;;;;;;32.20;14.10;;;10.20;99.90;;;;;;6074481;23;20070;-83
2022/03/27 00:32:20;;;;;;;31.15;14.00;;;10.20;99.90;;;;;;6074303;23;20017;-83
2022/03/27 00:34:48;;;;;;;25.10;13.07;;;10.20;99.90;;;;;;6098188;23;20397;-83
2022/03/27 00:37:14;;;;;;;27.20;13.02;;;10.20;99.90;;;;;;6098070;23;20037;-83
2022/03/27 00:39:41;;;;;;;30.67;13.63;;;10.10;99.90;;;;;;6098382;23;20073;-83
2022/03/27 00:42:08;;;;;;;30.15;12.40;;;10.10;99.90;;;;;;6074041;23;20083;-83
2022/03/27 00:44:38;;;;;;;27.65;12.80;;;10.10;99.90;;;;;;6098080;23;20007;-83
2022/03/27 00:47:08;;;;;;;31.88;12.57;;;10.00;99.90;;;;;;6098066;23;20039;-83
2022/03/27 00:49:35;;;;;;;25.52;12.18;;;10.00;99.90;;;;;;6097926;23;20085;-83
2022/03/27 00:52:02;;;;;;;25.90;11.80;;;9.90;99.90;;;;;;6073746;23;20007;-83
2022/03/27 00:54:29;;;;;;;26.05;13.02;;;9.90;99.90;;;;;;6073929;23;20007;-83
2022/03/27 00:56:55;;;;;;;28.58;11.73;;;9.90;99.90;;;;;;6074015;23;20018;-83
2022/03/27 00:59:22;;;;;;;30.05;12.82;;;9.90;99.90;;;;;;6097848;23;20345;-83
2022/03/27 01:01:49;;;;;;;25.83;10.52;;;9.90;99.90;;;;;;6073899;23;20565;-83
2022/03/27 01:04:16;;;;;;;23.42;11.02;;;9.90;99.90;;;;;;6098409;23;20469;-83
2022/03/27 01:06:44;;;;;;;24.83;11.95;;;9.80;99.90;;;;;;6073864;23;20010;-83
2022/03/27 01:09:37;;;;;;;21.15;10.55;;;9.80;99.90;;;;;;6097665;23;20054;-83
2022/03/27 01:12:22;;;;;;;31.23;11.63;;;9.80;99.90;;;;;;6122148;23;20033;-83
2022/03/27 01:14:51;;;;;;;24.05;10.90;;;9.70;99.90;;;;;;6097958;23;20077;-83
2022/03/27 01:17:23;;;;;;;18.50;9.82;;;9.70;99.90;;;;;;6098052;23;20014;-83
2022/03/27 01:19:52;;;;;;;31.90;10.45;;;9.70;99.90;;;;;;6097638;23;20034;-83
2022/03/27 01:22:20;;;;;;;24.67;10.55;;;9.70;99.90;;;;;;6097450;23;20025;-83
2022/03/27 01:24:48;;;;;;;22.30;10.13;;;9.60;99.90;;;;;;6097261;23;20097;-83
2022/03/27 01:27:15;;;;;;;21.80;10.27;;;9.60;99.90;;;;;;6097515;23;20042;-83
2022/03/27 01:29:42;;;;;;;25.95;11.38;;;9.60;99.90;;;;;;6097806;23;20014;-82
2022/03/27 01:32:19;;;;;;;30.25;10.40;;;9.50;99.90;;;;;;6097478;23;20049;-83
2022/03/27 01:34:47;;;;;;;19.30;10.05;;;9.40;99.90;;;;;;6097394;23;20041;-82
2022/03/27 01:37:15;;;;;;;20.00;9.23;;;9.40;99.90;;;;;;6097557;23;20010;-83
2022/03/27 01:39:43;;;;;;;24.45;9.48;;;9.40;99.90;;;;;;6097844;23;20049;-83
2022/03/27 01:42:09;;;;;;;21.35;11.20;;;9.40;99.90;;;;;;6097431;23;20428;-83
2022/03/27 01:44:36;;;;;;;23.27;9.50;;;9.40;99.90;;;;;;6097385;23;20453;-83
2022/03/27 01:47:03;;;;;;;21.10;10.35;;;9.40;99.90;;;;;;6097513;23;20153;-83
2022/03/27 01:49:29;;;;;;;24.05;12.02;;;9.30;99.90;;;;;;6097404;23;20049;-83
2022/03/27 01:51:56;;;;;;;20.10;9.13;;;9.30;99.90;;;;;;6073872;23;20010;-83
2022/03/27 01:54:23;;;;;;;22.80;9.27;;;9.30;99.90;;;;;;6097456;23;20011;-83
2022/03/27 01:56:50;;;;;;;25.10;10.20;;;9.30;99.90;;;;;;6097256;23;20022;-82
2022/03/27 01:59:20;;;;;;;23.27;10.40;;;9.20;99.90;;;;;;6097170;23;20053;-83
2022/03/27 02:01:48;;;;;;;23.63;9.68;;;9.20;99.90;;;;;;6097630;23;20014;-83
2022/03/27 02:04:14;;;;;;;17.02;8.77;;;9.30;99.90;;;;;;6097257;23;20061;-83
2022/03/27 02:06:43;;;;;;;23.35;8.40;;;9.30;99.90;;;;;;6091396;23;20011;-83
2022/03/27 02:09:12;;;;;;;20.05;8.70;;;9.30;99.90;;;;;;6069393;23;20016;-83
2022/03/27 02:11:43;;;;;;;21.30;9.60;;;9.30;99.90;;;;;;6097274;23;20010;-83
2022/03/27 02:14:11;;;;;;;19.80;9.65;;;9.30;99.90;;;;;;6097144;23;20034;-83
2022/03/27 02:16:39;;;;;;;22.02;9.50;;;9.20;99.90;;;;;;6096814;23;20022;-82
2022/03/27 02:19:08;;;;;;;20.70;10.25;;;9.20;99.90;;;;;;6097013;23;20014;-82
2022/03/27 02:21:35;;;;;;;19.63;8.75;;;9.20;99.90;;;;;;6121481;23;20002;-83
2022/03/27 02:24:03;;;;;;;18.85;7.82;;;9.20;99.90;;;;;;6097410;23;20008;-83
2022/03/27 02:26:31;;;;;;;22.00;9.02;;;9.20;99.90;;;;;;6097032;23;20065;-83
2022/03/27 02:28:58;;;;;;;20.90;7.80;;;9.20;99.90;;;;;;6096745;23;20010;-82
2022/03/27 02:31:25;;;;;;;18.52;8.15;;;9.10;99.90;;;;;;6096950;23;20013;-82
2022/03/27 02:33:51;;;;;;;14.77;7.88;;;9.10;99.90;;;;;;6096778;23;20010;-83
2022/03/27 02:36:18;;;;;;;24.92;7.97;;;9.10;99.90;;;;;;6096767;23;20454;-83
2022/03/27 02:38:45;;;;;;;20.65;8.30;;;9.10;99.90;;;;;;6097511;23;20010;-83
2022/03/27 02:41:15;;;;;;;14.23;7.57;;;9.10;99.90;;;;;;6096910;23;20018;-83
2022/03/27 02:43:41;;;;;;;19.02;7.15;;;9.00;99.90;;;;;;6097933;23;20322;-83
2022/03/27 02:46:09;;;;;;;17.83;8.25;;;9.10;99.90;;;;;;6096697;23;20014;-83
2022/03/27 02:48:36;;;;;;;23.08;8.30;;;9.00;99.90;;;;;;6121340;23;20022;-83
2022/03/27 02:51:03;;;;;;;16.98;7.38;;;9.00;99.90;;;;;;6096710;23;20010;-83
2022/03/27 02:53:29;;;;;;;17.35;6.90;;;9.00;99.90;;;;;;6096722;23;20006;-83
2022/03/27 02:55:56;;;;;;;15.60;7.80;;;8.90;99.90;;;;;;6097162;23;20037;-82
2022/03/27 02:58:22;;;;;;;16.10;7.55;;;8.90;99.90;;;;;;6097535;23;20053;-83
2022/03/27 03:00:49;;;;;;;16.33;7.00;;;8.80;99.90;;;;;;6101531;23;20084;-82
2022/03/27 03:03:16;;;;;;;15.98;7.05;;;8.80;99.90;;;;;;6101877;23;20006;-82
2022/03/27 03:05:43;;;;;;;19.65;7.80;;;8.80;99.90;;;;;;6101757;23;20064;-83
2022/03/27 03:08:13;;;;;;;15.95;7.93;;;8.80;99.90;;;;;;6096753;23;20127;-83
2022/03/27 03:10:41;;;;;;;18.25;7.38;;;8.80;99.90;;;;;;6048143;23;20015;-83
2022/03/27 03:13:09;;;;;;;17.25;6.95;;;8.80;99.90;;;;;;6047797;23;20077;-83
2022/03/27 03:15:37;;;;;;;20.08;6.68;;;8.80;99.90;;;;;;6047786;23;20026;-83
2022/03/27 03:18:05;;;;;;;13.82;7.25;;;8.80;99.90;;;;;;6072076;23;20011;-83
2022/03/27 03:20:33;;;;;;;15.07;7.40;;;8.90;99.90;;;;;;6047759;23;20022;-83
2022/03/27 03:22:59;;;;;;;17.52;7.47;;;8.90;99.90;;;;;;6047947;23;20026;-83
2022/03/27 03:25:26;;;;;;;18.33;7.40;;;8.80;99.90;;;;;;6047936;23;20041;-83
2022/03/27 03:27:53;;;;;;;17.83;7.90;;;8.80;99.90;;;;;;6048195;23;20003;-83
2022/03/27 03:30:20;;;;;;;20.05;8.52;;;8.80;99.90;;;;;;6047894;23;20133;-83
2022/03/27 03:32:48;;;;;;;19.60;9.15;;;8.80;99.90;;;;;;6047780;23;20090;-83
2022/03/27 03:35:16;;;;;;;31.23;11.52;;;8.80;99.90;;;;;;6047856;23;20022;-84
2022/03/27 03:37:43;;;;;;;33.17;12.55;;;8.80;99.90;;;;;;6047999;23;20345;-83
2022/03/27 03:40:10;;;;;;;31.55;9.88;;;8.90;99.90;;;;;;6075837;23;20448;-83
2022/03/27 03:42:37;;;;;;;29.65;12.05;;;8.90;99.90;;;;;;6101632;23;20010;-83
2022/03/27 03:45:04;;;;;;;34.78;12.57;;;8.90;99.90;;;;;;6101967;23;20010;-83
2022/03/27 03:47:34;;;;;;;32.22;11.88;;;8.90;99.90;;;;;;6103455;23;20488;-83
2022/03/27 03:50:01;;;;;;;41.15;12.85;;;9.00;99.90;;;;;;6103367;23;20013;-83
2022/03/27 03:52:27;;;;;;;32.35;10.85;;;9.00;99.90;;;;;;6103527;23;20384;-83
2022/03/27 03:54:54;;;;;;;32.85;12.43;;;9.00;99.90;;;;;;6103509;23;20145;-82
2022/03/27 03:57:21;;;;;;;35.03;11.98;;;9.00;99.90;;;;;;6103474;23;20036;-83
2022/03/27 03:59:47;;;;;;;30.83;10.93;;;9.00;99.90;;;;;;6098132;23;20026;-83
2022/03/27 04:02:18;;;;;;;30.83;11.15;;;9.10;99.90;;;;;;6098363;23;20021;-83
2022/03/27 04:04:46;;;;;;;36.63;11.30;;;9.10;99.90;;;;;;6098279;23;20017;-83
2022/03/27 04:07:13;;;;;;;38.20;12.43;;;9.10;99.90;;;;;;6098553;23;20010;-83
2022/03/27 04:09:39;;;;;;;33.10;11.30;;;9.10;99.90;;;;;;6098605;23;20045;-83
2022/03/27 04:12:06;;;;;;;32.03;11.63;;;9.10;99.90;;;;;;6098360;23;20082;-83
2022/03/27 04:14:36;;;;;;;36.88;11.43;;;9.00;99.90;;;;;;6122718;23;20010;-83
2022/03/27 04:17:04;;;;;;;31.08;9.63;;;9.10;99.90;;;;;;6098178;23;20010;-84
2022/03/27 04:19:31;;;;;;;24.92;9.35;;;9.00;99.90;;;;;;6100152;23;20069;-83
2022/03/27 04:21:58;;;;;;;31.77;9.30;;;9.00;99.90;;;;;;6098158;23;20011;-83
2022/03/27 04:24:24;;;;;;;26.90;9.73;;;9.00;99.90;;;;;;6098203;23;20437;-83
2022/03/27 04:26:51;;;;;;;23.80;8.50;;;9.00;99.90;;;;;;6098362;23;20006;-83
2022/03/27 04:29:17;;;;;;;32.47;9.25;;;9.00;99.90;;;;;;6098194;23;20011;-83
2022/03/27 04:31:44;;;;;;;26.25;9.40;;;9.00;99.90;;;;;;6098768;23;20021;-83
2022/03/27 04:34:10;;;;;;;16.90;7.93;;;9.00;99.90;;;;;;6098301;23;20010;-83
2022/03/27 04:36:37;;;;;;;17.20;7.32;;;9.00;99.90;;;;;;6068949;23;20018;-83
2022/03/27 04:39:05;;;;;;;18.58;8.02;;;9.00;99.90;;;;;;6068443;23;20003;-83
2022/03/27 04:41:32;;;;;;;14.90;7.47;;;9.00;99.90;;;;;;6068756;23;20065;-84
2022/03/27 04:43:59;;;;;;;19.80;7.55;;;9.00;99.90;;;;;;6068153;23;20007;-84
2022/03/27 04:46:26;;;;;;;23.75;8.05;;;9.00;99.90;;;;;;6068568;23;20006;-84
2022/03/27 04:48:53;;;;;;;17.58;6.75;;;9.10;99.90;;;;;;6068644;23;20026;-84
2022/03/27 04:51:22;;;;;;;17.02;6.85;;;9.10;99.90;;;;;;6068680;23;20010;-85
2022/03/27 04:53:49;;;;;;;14.43;6.22;;;9.10;99.90;;;;;;6068417;23;20010;-85
2022/03/27 04:56:17;;;;;;;13.02;6.53;;;9.10;99.90;;;;;;6068452;23;20096;-84
2022/03/27 04:58:44;;;;;;;13.02;6.22;;;9.20;99.90;;;;;;6067829;23;20030;-83
2022/03/27 05:01:10;;;;;;;16.90;6.15;;;9.20;99.90;;;;;;6044157;23;20094;-83
2022/03/27 05:03:37;;;;;;;15.30;6.80;;;9.20;99.90;;;;;;6068042;23;20545;-83
2022/03/27 05:06:04;;;;;;;18.45;7.15;;;9.30;99.90;;;;;;6068079;23;20361;-84
2022/03/27 05:08:32;;;;;;;16.45;6.97;;;9.30;99.90;;;;;;6094530;23;20373;-83
2022/03/27 05:10:59;;;;;;;14.95;6.47;;;9.30;99.90;;;;;;6097543;23;20018;-82
2022/03/27 05:13:26;;;;;;;14.90;6.65;;;9.40;99.90;;;;;;6098289;23;20098;-83
2022/03/27 05:15:53;;;;;;;17.77;7.43;;;9.40;99.90;;;;;;6097340;23;20022;-83
2022/03/27 05:18:20;;;;;;;13.90;6.22;;;9.40;99.90;;;;;;6097666;23;20030;-83
2022/03/27 05:20:47;;;;;;;17.40;7.25;;;9.40;99.90;;;;;;6097548;23;20348;-84
2022/03/27 05:23:13;;;;;;;17.98;8.05;;;9.40;99.90;;;;;;6097650;23;20086;-84
2022/03/27 05:25:45;;;;;;;13.65;6.95;;;9.40;99.90;;;;;;6097468;23;20021;-84
2022/03/27 05:28:16;;;;;;;25.35;7.30;;;9.50;99.90;;;;;;6098035;23;20089;-83
2022/03/27 05:30:43;;;;;;;15.25;7.13;;;9.50;99.90;;;;;;6097690;23;20389;-83
2022/03/27 05:33:10;;;;;;;17.23;7.05;;;9.50;99.90;;;;;;6097874;23;20010;-83
2022/03/27 05:35:37;;;;;;;16.27;6.75;;;9.50;99.90;;;;;;6097706;23;20026;-83
2022/03/27 05:38:05;;;;;;;11.68;5.75;;;9.50;99.90;;;;;;6097592;23;20314;-83
2022/03/27 05:40:31;;;;;;;16.10;7.15;;;9.60;99.90;;;;;;6097500;23;20065;-84
2022/03/27 05:42:58;;;;;;;13.43;6.30;;;9.70;99.90;;;;;;6097369;23;20013;-85
2022/03/27 05:45:25;;;;;;;15.55;7.38;;;9.80;99.90;;;;;;6097680;23;20030;-86
2022/03/27 05:47:53;;;;;;;24.83;8.75;;;9.80;99.90;;;;;;6097802;23;20010;-86
2022/03/27 05:50:22;;;;;;;16.77;8.20;;;9.90;99.90;;;;;;6097602;23;20094;-86
2022/03/27 05:52:51;;;;;;;18.65;9.45;;;9.90;99.90;;;;;;6097431;23;20342;-85
2022/03/27 05:55:17;;;;;;;24.30;9.77;;;10.00;99.90;;;;;;6097450;23;20054;-86
2022/03/27 05:57:44;;;;;;;20.75;9.07;;;10.00;99.90;;;;;;6097568;23;20011;-86
2022/03/27 06:00:12;;;;;;;15.55;7.85;;;10.00;99.90;;;;;;6097159;23;20018;-86
2022/03/27 06:02:43;;;;;;;21.27;7.40;;;10.00;99.90;;;;;;6097321;23;20014;-86
2022/03/27 06:05:13;;;;;;;16.10;7.60;;;10.10;99.90;;;;;;6097583;23;20007;-86
2022/03/27 06:07:46;;;;;;;19.73;7.22;;;10.10;99.90;;;;;;6097505;23;20011;-85
2022/03/27 06:10:14;;;;;;;18.60;7.22;;;10.10;99.90;;;;;;6097022;23;20007;-86
2022/03/27 06:12:45;;;;;;;14.73;7.03;;;10.20;99.90;;;;;;6097072;23;20101;-82
2022/03/27 06:15:14;;;;;;;19.63;6.97;;;10.30;99.90;;;;;;6096841;23;20445;-82
2022/03/27 06:17:44;;;;;;;19.65;6.50;;;10.40;99.90;;;;;;6096587;23;20007;-82
2022/03/27 06:20:16;;;;;;;18.27;7.43;;;10.40;99.90;;;;;;6096372;23;20015;-82
2022/03/27 06:22:44;;;;;;;45.45;15.20;;;10.50;99.90;;;;;;6096750;23;20422;-82
2022/03/27 06:25:15;;;;;;;80.75;26.08;;;10.60;99.90;;;;;;6096854;23;20007;-83
2022/03/27 06:27:42;;;;;;;101.47;29.65;;;10.70;99.90;;;;;;6096736;23;20437;-82
2022/03/27 06:30:13;;;;;;;65.45;22.92;;;10.80;99.90;;;;;;6096331;23;20007;-82
2022/03/27 06:32:41;;;;;;;70.10;19.25;;;10.90;99.90;;;;;;6121147;23;20045;-82
2022/03/27 06:35:09;;;;;;;47.95;16.45;;;11.00;99.90;;;;;;6096299;23;20037;-82
2022/03/27 06:37:37;;;;;;;41.03;14.40;;;11.10;99.90;;;;;;6096547;23;20029;-84
2022/03/27 06:40:06;;;;;;;40.42;12.82;;;11.10;99.90;;;;;;6097275;23;20011;-85
2022/03/27 06:42:33;;;;;;;30.80;14.07;;;11.20;99.90;;;;;;6096904;23;20062;-84
2022/03/27 06:45:00;;;;;;;30.95;11.93;;;11.40;99.90;;;;;;6096258;23;20440;-83
2022/03/27 06:47:29;;;;;;;37.20;11.98;;;11.50;99.90;;;;;;6072621;23;20014;-83
2022/03/27 06:49:58;;;;;;;23.13;9.73;;;11.60;99.90;;;;;;6096723;23;20014;-84
2022/03/27 06:52:28;;;;;;;25.20;10.85;;;11.60;99.90;;;;;;6095471;23;20467;-83
2022/03/27 06:54:56;;;;;;;30.33;11.57;;;11.80;99.90;;;;;;6095267;23;20042;-83
2022/03/27 06:57:22;;;;;;;44.20;13.55;;;11.80;99.90;;;;;;6094729;23;20524;-83
2022/03/27 07:05:22;;;;;;;22.05;8.82;;;12.10;99.90;;;;;;6119458;23;20018;-83
2022/03/27 07:07:49;;;;;;;15.38;7.00;;;12.10;99.90;;;;;;6095627;23;20017;-83
2022/03/27 07:10:16;;;;;;;17.25;6.63;;;12.20;99.90;;;;;;6095342;23;20014;-83
2022/03/27 07:12:47;;;;;;;16.70;7.20;;;12.40;99.90;;;;;;6095015;23;20037;-87
2022/03/27 07:15:14;;;;;;;18.77;9.25;;;12.50;99.90;;;;;;6095473;23;20014;-86
2022/03/27 07:17:46;;;;;;;17.02;7.45;;;12.60;99.90;;;;;;6099522;23;20021;-87
2022/03/27 07:20:24;;;;;;;15.75;6.68;;;12.70;99.90;;;;;;6097774;23;20006;-89
2022/03/27 07:22:53;;;;;;;23.05;7.15;;;12.80;99.90;;;;;;6099934;23;20011;-89
2022/03/27 07:25:21;;;;;;;19.67;7.38;;;12.90;99.90;;;;;;6099054;23;20029;-90
2022/03/27 07:27:48;;;;;;;15.25;6.75;;;13.10;99.90;;;;;;6098749;23;20013;-91
2022/03/27 07:30:15;;;;;;;12.07;5.70;;;13.10;99.90;;;;;;6099706;23;20058;-91
2022/03/27 07:32:42;;;;;;;9.05;4.43;;;13.20;99.90;;;;;;6100160;23;20010;-88
2022/03/27 07:35:11;;;;;;;10.60;4.93;;;13.50;99.90;;;;;;6098351;23;20110;-86
2022/03/27 07:37:39;;;;;;;13.48;5.25;;;13.60;99.90;;;;;;6098737;23;20062;-88
2022/03/27 07:40:08;;;;;;;14.75;6.78;;;13.80;99.90;;;;;;6099068;23;20093;-89
2022/03/27 07:42:46;;;;;;;12.30;4.50;;;13.90;99.90;;;;;;6099112;23;20035;-89
2022/03/27 07:45:15;;;;;;;7.07;3.30;;;14.00;99.90;;;;;;6098964;23;20101;-87
2022/03/27 07:47:42;;;;;;;5.82;2.78;;;14.30;99.90;;;;;;6098977;23;20061;-88
2022/03/27 07:50:09;;;;;;;8.95;2.47;;;14.40;99.90;;;;;;6098890;23;20015;-86
2022/03/27 07:52:36;;;;;;;7.30;2.75;;;14.40;99.90;;;;;;6099213;23;20019;-86
2022/03/27 07:55:04;;;;;;;5.32;2.30;;;14.70;99.90;;;;;;6098689;23;20019;-87
2022/03/27 07:57:31;;;;;;;3.33;1.50;;;14.80;99.90;;;;;;6098494;23;20030;-87
2022/03/27 07:59:57;;;;;;;6.03;2.25;;;14.80;99.90;;;;;;6098511;23;20018;-86
2022/03/27 08:02:25;;;;;;;5.90;1.95;;;15.00;99.90;;;;;;6074732;23;20406;-87
2022/03/27 08:04:52;;;;;;;5.65;2.25;;;15.20;99.90;;;;;;6099068;23;20006;-86
2022/03/27 08:07:18;;;;;;;3.75;2.25;;;15.30;99.90;;;;;;6103064;23;20006;-87
2022/03/27 08:09:45;;;;;;;7.82;1.95;;;15.30;99.90;;;;;;6102893;23;20761;-88
2022/03/27 08:12:11;;;;;;;5.72;2.45;;;15.40;99.90;;;;;;6103677;23;20014;-87
2022/03/27 08:14:39;;;;;;;3.75;1.60;;;15.50;99.90;;;;;;6103526;23;20006;-87
2022/03/27 08:17:07;;;;;;;4.15;1.40;;;15.60;99.90;;;;;;6105730;23;20003;-88
2022/03/27 08:19:36;;;;;;;3.78;1.42;;;15.70;99.90;;;;;;6103931;23;20089;-88
2022/03/27 08:22:03;;;;;;;4.57;1.40;;;15.70;99.90;;;;;;6104302;23;20023;-90
2022/03/27 08:24:29;;;;;;;3.15;1.23;;;15.80;99.90;;;;;;6104292;23;20033;-89
2022/03/27 08:26:56;;;;;;;3.42;1.30;;;16.10;99.90;;;;;;6104627;23;20103;-89
2022/03/27 08:29:25;;;;;;;2.80;1.17;;;16.20;99.90;;;;;;6103851;23;20093;-87
2022/03/27 08:31:54;;;;;;;2.20;1.55;;;16.40;99.90;;;;;;6102743;23;20006;-88
2022/03/27 08:34:23;;;;;;;2.35;1.40;;;16.60;99.90;;;;;;6102785;23;20014;-89
2022/03/27 08:36:50;;;;;;;2.40;1.13;;;16.80;99.90;;;;;;6101544;23;20019;-89
2022/03/27 08:39:18;;;;;;;4.15;1.58;;;16.90;99.90;;;;;;6077129;23;20006;-88
2022/03/27 08:41:47;;;;;;;1.02;0.90;;;17.00;99.90;;;;;;6100079;23;20340;-88
2022/03/27 08:44:18;;;;;;;1.95;1.17;;;17.20;99.90;;;;;;6102241;23;20007;-88
2022/03/27 08:46:47;;;;;;;3.67;1.52;;;17.30;99.90;;;;;;6100685;23;20437;-87
2022/03/27 08:49:26;;;;;;;2.70;1.25;;;17.30;99.90;;;;;;6101031;23;20094;-87
2022/03/27 08:52:02;;;;;;;1.83;1.17;;;17.20;99.90;;;;;;6101146;23;20065;-92
2022/03/27 08:54:39;;;;;;;7.68;1.95;;;17.20;99.90;;;;;;6102700;23;20011;-89
2022/03/27 08:57:24;;;;;;;2.22;1.20;;;16.80;99.90;;;;;;6101405;23;20022;-87
2022/03/27 08:59:57;;;;;;;1.85;0.98;;;16.80;99.90;;;;;;6098878;23;20026;-86
2022/03/27 09:02:24;;;;;;;3.80;1.10;;;16.60;99.90;;;;;;6101027;23;20097;-85
2022/03/27 09:04:55;;;;;;;4.25;1.70;;;16.60;99.90;;;;;;6097944;23;20057;-86
2022/03/27 09:07:30;;;;;;;2.22;1.10;;;16.60;99.90;;;;;;6097868;23;20015;-85
2022/03/27 09:10:00;;;;;;;3.58;1.27;;;16.60;99.90;;;;;;6097653;23;20011;-84
2022/03/27 09:12:27;;;;;;;3.53;2.15;;;16.70;99.90;;;;;;6097989;23;20020;-85
2022/03/27 09:14:54;;;;;;;5.03;1.60;;;16.70;99.90;;;;;;6097708;23;20329;-85
2022/03/27 09:17:20;;;;;;;2.50;1.50;;;16.80;99.90;;;;;;6097645;23;20006;-85
2022/03/27 09:19:50;;;;;;;2.42;1.10;;;17.00;99.90;;;;;;6097659;23;20085;-89
2022/03/27 09:22:22;;;;;;;4.88;1.63;;;16.90;99.90;;;;;;6097944;23;20014;-87
2022/03/27 09:25:09;;;;;;;2.88;1.60;;;16.90;99.90;;;;;;6097562;23;20041;-87
2022/03/27 09:27:37;;;;;;;3.72;1.77;;;17.00;99.90;;;;;;6097678;23;20011;-86
2022/03/27 09:30:17;;;;;;;4.22;2.05;;;16.70;99.90;;;;;;6097521;23;20002;-87
2022/03/27 09:32:45;;;;;;;7.75;1.85;;;16.60;99.90;;;;;;6097331;23;20043;-84
2022/03/27 09:35:17;;;;;;;5.55;1.90;;;16.80;99.90;;;;;;6097948;23;20015;-84
2022/03/27 09:37:47;;;;;;;1.45;1.10;;;16.80;99.90;;;;;;6098772;23;20017;-84
2022/03/27 09:40:18;;;;;;;2.97;1.20;;;16.90;99.90;;;;;;6098850;23;20007;-85
2022/03/27 09:42:44;;;;;;;1.77;1.63;;;16.90;99.90;;;;;;6122117;23;20094;-87
2022/03/27 09:45:17;;;;;;;3.17;1.30;;;17.10;99.90;;;;;;6097331;23;20342;-84
2022/03/27 09:47:50;;;;;;;4.60;1.23;;;17.20;99.90;;;;;;6097111;23;20038;-84
2022/03/27 09:50:34;;;;;;;2.90;1.10;;;17.20;99.90;;;;;;6097331;23;20448;-84
2022/03/27 09:53:28;;;;;;;4.90;1.70;;;17.20;99.90;;;;;;6097228;23;20006;-87
2022/03/27 09:56:13;;;;;;;1.83;1.40;;;17.30;99.90;;;;;;6097017;23;20354;-89
2022/03/27 09:58:47;;;;;;;5.47;1.20;;;17.30;99.90;;;;;;6102377;23;20317;-87
2022/03/27 10:01:30;;;;;;;3.78;0.88;;;17.20;99.90;;;;;;6102233;23;20021;-87
2022/03/27 10:04:13;;;;;;;1.20;1.13;;;17.30;99.90;;;;;;6102291;23;20479;-87
2022/03/27 10:06:41;;;;;;;5.97;1.63;;;17.20;99.90;;;;;;6102051;23;20448;-86
2022/03/27 10:09:11;;;;;;;2.22;1.27;;;17.40;99.90;;;;;;6078053;23;20009;-87
2022/03/27 10:11:39;;;;;;;6.43;1.85;;;17.40;99.90;;;;;;6101888;23;20397;-87
2022/03/27 10:14:07;;;;;;;8.75;1.38;;;17.40;99.90;;;;;;6078415;23;20416;-86
2022/03/27 10:16:36;;;;;;;1.42;1.30;;;17.30;99.90;;;;;;6102209;23;20026;-86
2022/03/27 10:19:35;;;;;;;5.40;1.60;;;17.30;99.90;;;;;;6102184;23;20006;-87
2022/03/27 10:22:06;;;;;;;7.07;1.38;;;17.30;99.90;;;;;;6096961;23;20021;-87
2022/03/27 10:24:34;;;;;;;2.78;1.33;;;17.30;99.90;;;;;;6102184;23;20032;-86
2022/03/27 10:27:02;;;;;;;4.03;1.50;;;17.20;99.90;;;;;;6077985;23;20013;-87
2022/03/27 10:29:30;;;;;;;3.72;1.65;;;17.10;99.90;;;;;;6078053;23;20384;-86
2022/03/27 10:32:02;;;;;;;2.42;1.67;;;17.20;99.90;;;;;;6078237;23;20018;-86
2022/03/27 10:34:36;;;;;;;4.07;1.70;;;17.20;99.90;;;;;;6102244;23;20013;-86
2022/03/27 10:37:50;;;;;;;2.60;1.42;;;17.30;99.90;;;;;;6101774;23;20068;-86
2022/03/27 10:40:26;;;;;;;2.85;1.10;;;17.30;99.90;;;;;;6101872;23;20021;-86
2022/03/27 10:43:17;;;;;;;5.00;1.13;;;17.50;99.90;;;;;;6078134;23;20329;-86
2022/03/27 10:45:45;;;;;;;3.97;1.48;;;17.60;99.90;;;;;;6078098;23;20336;-85
2022/03/27 10:48:15;;;;;;;1.25;1.13;;;17.50;99.90;;;;;;6077986;23;20432;-87
2022/03/27 10:50:48;;;;;;;2.25;1.08;;;17.60;99.90;;;;;;6102263;23;20444;-84
2022/03/27 10:53:15;;;;;;;2.42;1.35;;;17.70;99.90;;;;;;6101784;23;20090;-87
2022/03/27 10:55:48;;;;;;;13.15;5.28;;;17.80;99.90;;;;;;6101330;23;20018;-85
2022/03/27 10:58:39;;;;;;;10.65;3.83;;;17.90;99.90;;;;;;6127483;23;20016;-84
2022/03/27 11:01:24;;;;;;;2.22;1.50;;;18.00;99.90;;;;;;6067808;23;20025;-86
2022/03/27 11:04:04;;;;;;;1.67;1.20;;;18.10;99.90;;;;;;6067932;23;19999;-86
2022/03/27 11:06:34;;;;;;;1.80;1.20;;;18.20;99.90;;;;;;6044303;23;20015;-86
2022/03/27 11:09:07;;;;;;;2.17;1.00;;;18.40;99.90;;;;;;6044216;23;20468;-86
2022/03/27 11:11:37;;;;;;;1.00;0.90;;;18.40;99.90;;;;;;6068066;23;20018;-85
2022/03/27 11:14:05;;;;;;;2.30;1.33;;;18.30;99.90;;;;;;6043896;23;20325;-85
2022/03/27 11:16:37;;;;;;;2.10;1.33;;;18.20;99.90;;;;;;6044150;23;20070;-86
2022/03/27 11:19:04;;;;;;;1.70;1.00;;;18.30;99.90;;;;;;6044006;23;20010;-84
2022/03/27 11:21:31;;;;;;;3.25;1.02;;;18.40;99.90;;;;;;6068003;23;20014;-85
2022/03/27 11:24:07;;;;;;;3.33;1.23;;;18.30;99.90;;;;;;6044065;23;20073;-84
2022/03/27 11:26:35;;;;;;;3.70;1.35;;;18.30;99.90;;;;;;6044128;23;20074;-85
2022/03/27 11:29:20;;;;;;;3.85;1.13;;;18.50;99.90;;;;;;6043881;23;20003;-85
2022/03/27 11:32:08;;;;;;;2.42;1.08;;;18.50;99.90;;;;;;6067737;23;20019;-85
2022/03/27 11:34:38;;;;;;;3.75;1.10;;;18.20;99.90;;;;;;6091822;23;20015;-84
2022/03/27 11:37:39;;;;;;;1.92;1.02;;;18.00;99.90;;;;;;6043923;23;20319;-85
2022/03/27 11:40:39;;;;;;;2.05;0.85;;;17.90;99.90;;;;;;6069297;23;20090;-84
2022/03/27 11:43:36;;;;;;;7.82;2.63;;;17.90;99.90;;;;;;6067771;23;20050;-84
2022/03/27 11:46:03;;;;;;;3.60;0.88;;;17.90;99.90;;;;;;6043414;23;20015;-83
2022/03/27 11:48:29;;;;;;;2.38;1.15;;;17.90;99.90;;;;;;6043733;23;20003;-86
2022/03/27 11:50:56;;;;;;;2.58;1.13;;;17.80;99.90;;;;;;6044109;23;20018;-88
2022/03/27 11:53:38;;;;;;;3.88;0.80;;;17.80;99.90;;;;;;6044072;23;20007;-88
2022/03/27 11:56:10;;;;;;;4.38;2.03;;;17.80;99.90;;;;;;6067886;23;20065;-89
2022/03/27 11:58:38;;;;;;;2.03;0.90;;;18.00;99.90;;;;;;6049038;23;20006;-89
2022/03/27 12:01:08;;;;;;;1.58;1.00;;;18.20;99.90;;;;;;6101849;23;20021;-85
2022/03/27 12:03:37;;;;;;;2.97;1.05;;;18.10;99.90;;;;;;6101777;23;20018;-85
2022/03/27 12:06:07;;;;;;;2.08;0.90;;;17.90;99.90;;;;;;6077504;23;20038;-87
2022/03/27 12:08:35;;;;;;;1.55;1.15;;;17.80;99.90;;;;;;6102387;23;20017;-84
2022/03/27 12:11:06;;;;;;;4.75;0.75;;;17.60;99.90;;;;;;6103106;23;20002;-85
2022/03/27 12:13:43;;;;;;;2.05;0.90;;;17.40;99.90;;;;;;6103221;23;20088;-83
2022/03/27 12:16:25;;;;;;;4.38;1.20;;;17.40;99.90;;;;;;6102482;23;20021;-84
2022/03/27 12:18:53;;;;;;;2.28;1.20;;;17.30;99.90;;;;;;6103448;23;20017;-85
2022/03/27 12:21:22;;;;;;;2.22;1.25;;;17.30;99.90;;;;;;6079201;23;20420;-86
2022/03/27 12:24:02;;;;;;;2.60;0.82;;;17.30;99.90;;;;;;6103089;23;20010;-87
2022/03/27 12:29:49;;;;;;;1.42;1.27;;;17.30;99.90;;;;;;6103140;23;20026;-86
2022/03/27 12:32:27;;;;;;;2.87;1.17;;;17.30;99.90;;;;;;6103404;23;20059;-90
2022/03/27 12:35:01;;;;;;;1.90;1.00;;;17.20;99.90;;;;;;6103079;23;20006;-90
2022/03/27 12:37:31;;;;;;;2.45;1.25;;;17.10;99.90;;;;;;6103169;23;20014;-91
2022/03/27 12:40:03;;;;;;;2.38;1.17;;;17.30;99.90;;;;;;6103624;23;20340;-90
2022/03/27 12:42:36;;;;;;;1.20;1.05;;;17.40;99.90;;;;;;6103064;23;20010;-89
2022/03/27 12:45:10;;;;;;;1.73;1.00;;;17.30;99.90;;;;;;6103134;23;20018;-90
2022/03/27 12:47:51;;;;;;;2.42;1.00;;;17.30;99.90;;;;;;6079102;23;20009;-88
2022/03/27 12:50:38;;;;;;;4.10;1.40;;;17.40;99.90;;;;;;6103130;23;20381;-89
2022/03/27 12:53:08;;;;;;;3.15;1.50;;;17.20;99.90;;;;;;6079083;23;20396;-86
2022/03/27 12:55:48;;;;;;;2.38;1.02;;;17.20;99.90;;;;;;6079121;23;20441;-91
2022/03/27 12:58:21;;;;;;;1.67;1.25;;;17.30;99.90;;;;;;6103402;23;20060;-89
2022/03/27 13:01:19;;;;;;;2.05;1.17;;;16.90;99.90;;;;;;6097824;23;20097;-87
2022/03/27 13:04:07;;;;;;;5.40;1.60;;;16.90;99.90;;;;;;6097997;23;20034;-86
2022/03/27 13:06:43;;;;;;;2.30;1.50;;;16.80;99.90;;;;;;6098048;23;20014;-86